Time;durP1;ratioP1;P1;durP2;ratioP2;P2;SDS_P1;SDS_P2;PMS_P1;PMS_P2;Temp;Humidity;BMP_temperature;BMP_pressure;BME280_temperature;BME280_humidity;BME280_pressure;Samples;Min_cycle;Max_cycle;Signal;HPM_P1;HPM_P2
2022/10/21 00:01:24;;;;;;;5.55;3.63;;;;;;;7.57;76.97;99281.94;5013955;28;20042;-62
2022/10/21 00:04:08;;;;;;;7.35;3.53;;;;;;;7.53;77.09;99285.56;5025895;28;20077;-61
2022/10/21 00:06:53;;;;;;;5.07;3.42;;;;;;;7.60;76.89;99280.91;5015584;28;20044;-62
2022/10/21 00:09:38;;;;;;;6.55;3.53;;;;;;;7.52;76.99;99282.13;5012524;28;20046;-61
2022/10/21 00:12:23;;;;;;;7.95;4.05;;;;;;;7.66;76.47;99277.16;5014234;28;20133;-62
2022/10/21 00:15:08;;;;;;;6.45;4.07;;;;;;;7.44;77.21;99267.78;5012398;28;20053;-62
2022/10/21 00:17:52;;;;;;;6.53;3.83;;;;;;;7.43;77.10;99277.34;5015255;28;20905;-63
2022/10/21 00:20:40;;;;;;;6.97;4.28;;;;;;;7.43;77.45;99268.66;5016567;28;20200;-62
2022/10/21 00:23:25;;;;;;;5.85;3.55;;;;;;;7.39;77.45;99281.03;5011362;28;20073;-63
2022/10/21 00:26:10;;;;;;;5.57;3.28;;;;;;;7.38;77.65;99268.88;5014179;28;20121;-62
2022/10/21 00:28:56;;;;;;;9.95;3.83;;;;;;;7.37;77.73;99254.19;5011682;28;20034;-62
2022/10/21 00:31:40;;;;;;;4.93;3.30;;;;;;;7.38;77.73;99272.34;5009483;28;20057;-62
2022/10/21 00:34:25;;;;;;;5.45;3.40;;;;;;;7.44;77.71;99267.78;5013428;28;20042;-62
2022/10/21 00:37:10;;;;;;;7.65;4.25;;;;;;;7.40;77.80;99267.06;5012859;28;20079;-61
2022/10/21 00:39:54;;;;;;;6.35;3.95;;;;;;;7.26;78.72;99259.91;5012909;28;20769;-63
2022/10/21 00:42:39;;;;;;;5.68;3.67;;;;;;;7.33;77.98;99260.47;5011628;28;20486;-60
2022/10/21 00:45:27;;;;;;;6.40;3.45;;;;;;;7.53;77.37;99259.50;5016604;28;20057;-60
2022/10/21 00:48:32;;;;;;;6.68;3.72;;;;;;;7.37;77.90;99262.00;5017711;28;20606;-62
2022/10/21 00:51:17;;;;;;;6.45;3.80;;;;;;;7.49;77.72;99255.38;5018928;28;20468;-62
2022/10/21 00:54:03;;;;;;;9.02;3.67;;;;;;;7.26;78.18;99257.31;5014994;28;20052;-60
2022/10/21 00:56:50;;;;;;;5.97;3.35;;;;;;;7.27;78.66;99252.03;5010256;28;20050;-62
2022/10/21 00:59:39;;;;;;;5.30;3.60;;;;;;;7.16;79.06;99243.84;5014757;28;20132;-60
2022/10/21 01:02:24;;;;;;;6.40;3.80;;;;;;;7.12;79.33;99232.72;5014490;28;20045;-61
2022/10/21 01:05:10;;;;;;;5.38;3.40;;;;;;;7.10;79.32;99221.53;5014469;28;20100;-62
2022/10/21 01:07:55;;;;;;;5.68;3.80;;;;;;;7.01;79.67;99227.16;5017802;28;20042;-62
2022/10/21 01:10:40;;;;;;;7.82;3.65;;;;;;;6.98;79.92;99227.31;5014204;28;20489;-62
2022/10/21 01:13:59;;;;;;;5.75;3.67;;;;;;;7.04;79.93;99219.22;5013871;28;20038;-62
2022/10/21 01:17:02;;;;;;;4.75;3.90;;;;;;;7.02;80.00;99218.44;5006700;28;20494;-62
2022/10/21 01:20:28;;;;;;;5.63;3.50;;;;;;;7.13;79.66;99233.59;5017528;28;20070;-60
2022/10/21 01:23:23;;;;;;;5.07;3.45;;;;;;;7.16;79.49;99225.63;4947356;28;20133;-62
2022/10/21 01:26:35;;;;;;;5.28;3.63;;;;;;;7.14;79.17;99217.88;4956692;28;20047;-60
2022/10/21 01:29:29;;;;;;;9.32;3.45;;;;;;;7.07;79.46;99226.03;4947074;28;20466;-62
2022/10/21 01:32:25;;;;;;;4.90;3.72;;;;;;;6.95;80.09;99207.47;4938102;28;20058;-62
2022/10/21 01:35:33;;;;;;;7.38;4.28;;;;;;;6.85;80.79;99203.59;4938374;28;20102;-62
2022/10/21 01:38:44;;;;;;;5.15;3.42;;;;;;;6.82;80.95;99198.53;4950537;28;20081;-62
2022/10/21 01:41:49;;;;;;;6.63;3.63;;;;;;;6.76;81.31;99190.06;4949593;28;20157;-62
2022/10/21 01:44:47;;;;;;;6.28;4.00;;;;;;;6.72;81.45;99178.13;4946479;28;20506;-63
2022/10/21 01:47:36;;;;;;;7.68;3.50;;;;;;;6.78;81.27;99185.66;4950470;28;20138;-62
2022/10/21 01:50:26;;;;;;;6.30;3.80;;;;;;;6.82;81.22;99188.09;4951674;28;20162;-62
2022/10/21 01:53:13;;;;;;;8.63;4.32;;;;;;;6.68;81.73;99183.53;4948841;28;20079;-62
2022/10/21 01:56:00;;;;;;;6.00;3.53;;;;;;;6.69;81.81;99178.25;4952829;28;20086;-63
2022/10/21 01:58:47;;;;;;;5.57;4.22;;;;;;;6.58;82.24;99170.06;4973602;28;20076;-63
2022/10/21 02:01:34;;;;;;;5.95;4.05;;;;;;;6.64;82.06;99162.00;5011151;28;20049;-62
2022/10/21 02:04:21;;;;;;;6.07;3.70;;;;;;;6.69;81.85;99178.25;5011197;28;20068;-61
2022/10/21 02:07:07;;;;;;;6.18;3.75;;;;;;;6.61;81.90;99189.00;4995150;28;20049;-61
2022/10/21 02:09:51;;;;;;;5.93;3.67;;;;;;;6.60;82.60;99176.06;5009566;28;20045;-63
2022/10/21 02:12:39;;;;;;;8.35;3.58;;;;;;;6.50;82.95;99179.09;5010349;28;20131;-63
2022/10/21 02:15:29;;;;;;;6.93;3.90;;;;;;;6.52;82.73;99172.06;5011706;28;20088;-63
2022/10/21 02:18:23;;;;;;;7.03;3.53;;;;;;;6.54;82.76;99182.41;5014575;28;20386;-62
2022/10/21 02:21:14;;;;;;;5.32;3.53;;;;;;;6.47;83.20;99184.44;5010746;28;20408;-63
2022/10/21 02:24:19;;;;;;;6.10;3.85;;;;;;;6.63;82.31;99170.72;5012839;28;20351;-63
2022/10/21 02:27:04;;;;;;;8.45;4.53;;;;;;;6.61;82.40;99167.34;5014290;28;20443;-62
2022/10/21 02:29:54;;;;;;;6.32;3.80;;;;;;;6.47;82.80;99166.22;5016503;28;20395;-61
2022/10/21 02:32:47;;;;;;;7.57;4.03;;;;;;;6.50;83.01;99160.00;5015618;28;20530;-64
2022/10/21 02:35:44;;;;;;;8.75;3.97;;;;;;;6.50;82.95;99189.50;5014465;28;20037;-63
2022/10/21 02:38:39;;;;;;;11.80;4.25;;;;;;;6.76;81.79;99174.44;5017924;28;20041;-62
2022/10/21 02:41:27;;;;;;;6.38;4.10;;;;;;;6.60;82.25;99158.69;5013293;28;20038;-64
2022/10/21 02:44:13;;;;;;;5.25;3.53;;;;;;;6.61;82.45;99169.97;5013215;28;20041;-61
2022/10/21 02:46:57;;;;;;;8.15;3.95;;;;;;;6.57;82.83;99171.00;5015776;28;20059;-62
2022/10/21 02:49:43;;;;;;;6.68;3.88;;;;;;;6.63;82.19;99161.16;5017760;28;20133;-61
2022/10/21 02:52:28;;;;;;;8.25;4.20;;;;;;;6.56;82.49;99164.13;5016113;28;20121;-61
2022/10/21 02:55:12;;;;;;;5.90;4.05;;;;;;;6.62;82.49;99166.44;5014620;28;20049;-61
2022/10/21 02:57:57;;;;;;;6.20;4.30;;;;;;;6.63;82.21;99170.72;5015040;28;20037;-62
2022/10/21 03:00:42;;;;;;;6.32;4.00;;;;;;;6.55;82.50;99154.59;5018161;28;20144;-60
2022/10/21 03:03:28;;;;;;;6.22;3.65;;;;;;;6.58;82.43;99168.31;5016962;28;20054;-59
2022/10/21 03:06:13;;;;;;;6.47;4.50;;;;;;;6.70;82.02;99171.28;5012737;28;20449;-60
2022/10/21 03:08:57;;;;;;;4.68;3.80;;;;;;;6.64;81.90;99162.00;5015286;28;20124;-63
2022/10/21 03:11:42;;;;;;;7.10;4.07;;;;;;;6.64;81.70;99172.41;5017092;28;20042;-64
2022/10/21 03:14:27;;;;;;;7.40;4.20;;;;;;;6.56;82.32;99166.72;5016103;28;20041;-62
2022/10/21 03:17:11;;;;;;;5.63;3.70;;;;;;;6.65;81.48;99168.91;5016763;28;20110;-61
2022/10/21 03:19:56;;;;;;;7.00;4.10;;;;;;;6.61;81.89;99165.56;5001036;28;20046;-62
2022/10/21 03:22:40;;;;;;;6.78;4.15;;;;;;;6.61;81.52;99162.16;5016042;28;20052;-61
2022/10/21 03:25:25;;;;;;;6.60;3.92;;;;;;;6.51;81.84;99170.34;5014815;28;20041;-62
2022/10/21 03:28:11;;;;;;;7.20;3.90;;;;;;;6.61;81.50;99172.56;5018329;28;20069;-61
2022/10/21 03:30:56;;;;;;;6.25;3.85;;;;;;;6.44;82.30;99161.16;5012655;28;20046;-62
2022/10/21 03:33:41;;;;;;;7.00;3.72;;;;;;;6.33;82.59;99161.66;5012179;28;20046;-61
2022/10/21 03:36:26;;;;;;;8.60;4.20;;;;;;;6.34;82.62;99171.13;5011972;28;20046;-62
2022/10/21 03:39:13;;;;;;;6.25;3.72;;;;;;;6.43;82.19;99182.03;5019177;28;20148;-62
2022/10/21 03:41:57;;;;;;;6.47;3.95;;;;;;;6.33;82.57;99184.22;5013954;28;20586;-61
2022/10/21 03:44:43;;;;;;;6.75;4.10;;;;;;;6.32;82.73;99178.16;5015927;28;20124;-60
2022/10/21 03:47:28;;;;;;;8.00;3.78;;;;;;;6.28;82.69;99163.59;5018292;28;20045;-62
2022/10/21 03:50:13;;;;;;;8.15;3.75;;;;;;;6.26;82.96;99163.66;5011580;28;20046;-61
2022/10/21 03:52:58;;;;;;;8.82;4.20;;;;;;;6.28;82.49;99180.03;5014698;28;20050;-62
2022/10/21 03:55:43;;;;;;;4.75;3.28;;;;;;;6.36;82.14;99171.06;5015633;28;20076;-60
2022/10/21 03:58:28;;;;;;;5.70;4.22;;;;;;;6.32;82.44;99164.28;5013595;28;20056;-60
2022/10/21 04:01:13;;;;;;;6.65;3.67;;;;;;;6.35;82.28;99156.38;5016555;28;20049;-61
2022/10/21 04:03:57;;;;;;;6.55;4.10;;;;;;;6.27;82.24;99161.91;5015234;28;20065;-61
2022/10/21 04:06:42;;;;;;;8.70;3.85;;;;;;;6.36;81.98;99156.31;5011847;28;20045;-63
2022/10/21 04:09:27;;;;;;;7.72;4.20;;;;;;;6.38;81.72;99161.44;5018356;28;20069;-61
2022/10/21 04:12:11;;;;;;;7.53;3.92;;;;;;;6.32;81.95;99153.88;5013783;28;20081;-60
2022/10/21 04:14:56;;;;;;;6.07;3.92;;;;;;;6.32;81.77;99169.50;5017461;28;20053;-61
2022/10/21 04:17:44;;;;;;;7.60;4.18;;;;;;;6.34;81.85;99176.34;5010945;28;20549;-61
2022/10/21 04:20:29;;;;;;;7.57;3.97;;;;;;;6.37;81.57;99175.34;5015058;28;20420;-62
2022/10/21 04:23:14;;;;;;;7.22;4.20;;;;;;;6.26;82.15;99183.63;5016002;28;20597;-62
2022/10/21 04:26:01;;;;;;;7.63;4.07;;;;;;;6.31;81.86;99186.03;5014373;28;20050;-61
2022/10/21 04:28:46;;;;;;;5.53;3.70;;;;;;;6.18;82.29;99202.19;5015452;28;20048;-62
2022/10/21 04:31:31;;;;;;;7.40;3.97;;;;;;;6.22;82.20;99195.94;5018385;28;20042;-63
2022/10/21 04:34:18;;;;;;;7.90;3.80;;;;;;;6.19;82.24;99196.06;5019177;28;20075;-62
2022/10/21 04:37:03;;;;;;;6.22;3.90;;;;;;;6.22;82.23;99198.53;5015322;28;20049;-62
2022/10/21 04:39:48;;;;;;;7.53;3.53;;;;;;;6.21;82.04;99189.03;5015136;28;20135;-60
2022/10/21 04:42:32;;;;;;;5.85;3.80;;;;;;;6.20;82.15;99192.53;5012808;28;20047;-62
2022/10/21 04:45:17;;;;;;;7.07;4.07;;;;;;;6.16;82.14;99196.19;5014455;28;20065;-62
2022/10/21 04:48:01;;;;;;;6.28;3.85;;;;;;;6.33;81.81;99202.44;5017670;28;20050;-61
2022/10/21 04:50:51;;;;;;;7.35;4.20;;;;;;;6.37;81.52;99189.22;5011696;28;20131;-62
2022/10/21 04:53:36;;;;;;;6.25;4.70;;;;;;;6.51;80.67;99182.56;5019434;28;20042;-61
2022/10/21 04:56:20;;;;;;;8.35;3.72;;;;;;;6.61;80.07;99183.81;5011942;28;20068;-62
2022/10/21 04:59:06;;;;;;;7.95;3.88;;;;;;;6.61;79.76;99182.97;5017583;28;20045;-62
2022/10/21 05:01:51;;;;;;;8.27;3.42;;;;;;;6.75;79.39;99180.59;5011242;28;20045;-63
2022/10/21 05:04:35;;;;;;;6.40;3.42;;;;;;;6.74;78.96;99181.47;5013439;28;20473;-62
2022/10/21 05:07:20;;;;;;;6.40;3.50;;;;;;;6.77;79.20;99176.13;5012083;28;20073;-61
2022/10/21 05:10:05;;;;;;;5.47;3.60;;;;;;;6.82;78.60;99175.91;5019905;28;20037;-61
2022/10/21 05:12:49;;;;;;;6.55;3.42;;;;;;;6.80;78.50;99163.88;5016554;28;20048;-62
2022/10/21 05:15:34;;;;;;;9.82;4.07;;;;;;;6.78;78.56;99183.03;4996443;28;20089;-62
2022/10/21 05:18:19;;;;;;;6.15;3.55;;;;;;;6.85;78.51;99167.97;5012336;28;20141;-62
2022/10/21 05:21:03;;;;;;;5.93;3.55;;;;;;;6.86;78.22;99167.06;5012388;28;20056;-61
2022/10/21 05:23:48;;;;;;;6.03;3.35;;;;;;;6.81;78.26;99163.81;5009086;28;21343;-63
2022/10/21 05:26:33;;;;;;;7.05;3.75;;;;;;;6.85;78.24;99174.94;5010017;28;20042;-64
2022/10/21 05:29:17;;;;;;;6.95;3.60;;;;;;;6.97;77.55;99165.72;5010004;28;20730;-63
2022/10/21 05:32:02;;;;;;;5.68;3.72;;;;;;;6.96;77.79;99170.06;5017449;28;20091;-64
2022/10/21 05:34:47;;;;;;;4.30;3.35;;;;;;;6.97;77.60;99173.53;5011313;28;20485;-64
2022/10/21 05:37:33;;;;;;;7.13;3.60;;;;;;;6.89;77.67;99168.66;5015987;28;20647;-64
2022/10/21 05:40:18;;;;;;;6.93;3.47;;;;;;;6.98;77.75;99168.25;5011806;28;20042;-62
2022/10/21 05:43:02;;;;;;;5.22;3.65;;;;;;;6.92;77.53;99165.09;5014488;28;20049;-63
2022/10/21 05:45:47;;;;;;;7.57;3.95;;;;;;;6.99;77.69;99174.28;5011109;28;20523;-62
2022/10/21 05:48:31;;;;;;;5.63;3.40;;;;;;;6.93;77.72;99161.56;5010903;28;20479;-63
2022/10/21 05:51:17;;;;;;;6.00;3.78;;;;;;;6.99;77.39;99162.13;4994252;28;20046;-63
2022/10/21 05:54:02;;;;;;;6.07;3.67;;;;;;;6.98;77.40;99154.38;5017461;28;20069;-63
2022/10/21 05:56:47;;;;;;;10.15;3.60;;;;;;;6.93;77.60;99158.94;5012372;28;20045;-63
2022/10/21 05:59:32;;;;;;;7.30;4.07;;;;;;;6.97;77.21;99155.31;5010325;28;20081;-64
2022/10/21 06:02:18;;;;;;;7.68;3.70;;;;;;;6.96;77.01;99151.00;5012569;28;20060;-64
2022/10/21 06:05:03;;;;;;;8.13;3.58;;;;;;;7.13;76.70;99156.22;5012972;28;20050;-65
2022/10/21 06:07:48;;;;;;;4.85;3.17;;;;;;;7.09;77.04;99153.84;5011475;28;20053;-64
2022/10/21 06:10:33;;;;;;;7.03;3.85;;;;;;;7.06;76.80;99167.03;5014810;28;20472;-65
2022/10/21 06:13:17;;;;;;;7.22;4.15;;;;;;;7.09;76.70;99177.31;5013250;28;20327;-65
2022/10/21 06:16:02;;;;;;;5.90;3.58;;;;;;;7.15;76.32;99174.41;5017931;28;20045;-66
2022/10/21 06:18:47;;;;;;;5.22;3.20;;;;;;;7.12;76.48;99174.53;5015719;28;20400;-65
2022/10/21 06:21:32;;;;;;;5.75;3.25;;;;;;;7.16;76.29;99176.09;5016258;28;20052;-64
2022/10/21 06:24:16;;;;;;;6.03;3.20;;;;;;;7.10;76.65;99169.41;5013255;28;20045;-65
2022/10/21 06:27:00;;;;;;;7.85;3.53;;;;;;;7.12;76.32;99169.34;5011591;28;20048;-49
2022/10/21 06:29:45;;;;;;;6.38;3.72;;;;;;;7.38;76.46;99172.44;5010471;28;20060;-60
2022/10/21 06:32:30;;;;;;;6.00;3.38;;;;;;;7.30;75.84;99175.44;5010392;28;20050;-62
2022/10/21 06:35:14;;;;;;;7.90;3.55;;;;;;;7.30;75.61;99169.38;5008474;28;20464;-61
2022/10/21 06:37:59;;;;;;;5.82;3.42;;;;;;;7.20;76.07;99161.16;5015650;28;20059;-62
2022/10/21 06:40:44;;;;;;;7.53;3.42;;;;;;;7.23;75.80;99168.84;5008476;28;20492;-62
2022/10/21 06:43:29;;;;;;;6.45;4.05;;;;;;;7.34;75.66;99161.34;5013860;28;20425;-62
2022/10/21 06:46:14;;;;;;;8.23;4.18;;;;;;;7.36;75.26;99167.31;5010814;28;20124;-62
2022/10/21 06:48:59;;;;;;;4.80;3.28;;;;;;;7.39;74.55;99159.34;5014180;28;20053;-61
2022/10/21 06:51:44;;;;;;;6.38;3.95;;;;;;;7.58;74.66;99160.19;5013857;28;20531;-61
2022/10/21 06:54:28;;;;;;;7.20;3.65;;;;;;;7.48;75.01;99162.41;5015270;28;20485;-62
2022/10/21 06:57:13;;;;;;;6.00;2.88;;;;;;;7.53;74.52;99168.25;5011256;28;20733;-62
2022/10/21 06:59:58;;;;;;;6.25;3.63;;;;;;;7.40;74.74;99162.78;5011162;28;20493;-61
2022/10/21 07:02:42;;;;;;;5.35;3.67;;;;;;;7.42;74.78;99173.16;5010799;28;20120;-61
2022/10/21 07:05:27;;;;;;;5.72;3.50;;;;;;;7.55;74.53;99176.00;5010375;28;20243;-61
2022/10/21 07:08:11;;;;;;;6.30;3.28;;;;;;;7.46;74.46;99182.53;5002675;28;20056;-62
2022/10/21 07:10:56;;;;;;;5.28;3.25;;;;;;;7.62;74.60;99177.38;5012310;28;20046;-61
2022/10/21 07:13:42;;;;;;;8.05;2.90;;;;;;;7.60;73.95;99179.22;5023511;28;20576;-63
2022/10/21 07:16:30;;;;;;;7.32;3.03;;;;;;;7.66;73.56;99178.91;5010874;28;20077;-62
2022/10/21 07:19:15;;;;;;;10.40;3.97;;;;;;;7.69;73.94;99189.19;5012761;28;20167;-61
2022/10/21 07:22:00;;;;;;;9.07;3.83;;;;;;;7.80;73.47;99193.84;5022003;28;20155;-62
2022/10/21 07:24:45;;;;;;;7.65;3.35;;;;;;;7.84;73.10;99190.19;5018467;28;20086;-61
2022/10/21 07:27:29;;;;;;;6.15;2.78;;;;;;;8.03;74.24;99191.03;5013944;28;20049;-61
2022/10/21 07:30:14;;;;;;;7.78;3.13;;;;;;;8.11;73.28;99187.06;5015164;28;20041;-60
2022/10/21 07:32:58;;;;;;;5.70;3.35;;;;;;;8.07;72.74;99174.28;5013768;28;20408;-62
2022/10/21 07:35:43;;;;;;;4.90;3.13;;;;;;;7.97;73.13;99163.47;5013509;28;20076;-64
2022/10/21 07:38:27;;;;;;;9.95;3.72;;;;;;;8.11;72.64;99162.78;5011599;28;20288;-61
2022/10/21 07:41:14;;;;;;;5.07;3.28;;;;;;;7.98;72.33;99154.72;5001721;28;20050;-62
2022/10/21 07:43:58;;;;;;;10.68;3.70;;;;;;;8.04;72.17;99149.19;5025544;28;20742;-61
2022/10/21 07:46:44;;;;;;;7.72;3.08;;;;;;;8.25;71.73;99148.97;5014012;28;20652;-61
2022/10/21 07:49:28;;;;;;;5.68;3.17;;;;;;;8.30;71.15;99146.97;5015211;28;20041;-60
2022/10/21 07:52:13;;;;;;;6.78;3.25;;;;;;;8.41;70.86;99135.94;5013616;28;20459;-61
2022/10/21 07:54:57;;;;;;;4.95;3.13;;;;;;;8.23;71.23;99143.84;5016869;28;20140;-61
2022/10/21 07:57:42;;;;;;;6.05;3.47;;;;;;;8.12;71.07;99133.13;5019307;28;20069;-61
2022/10/21 08:00:27;;;;;;;4.85;3.30;;;;;;;8.01;71.79;99131.91;5013864;28;20041;-60
2022/10/21 08:03:12;;;;;;;7.70;3.85;;;;;;;8.17;70.95;99125.91;5011125;28;20683;-61
2022/10/21 08:05:57;;;;;;;7.78;3.53;;;;;;;8.31;71.26;99113.88;5013108;28;20048;-61
2022/10/21 08:08:43;;;;;;;7.05;3.70;;;;;;;8.27;71.16;99123.66;5016357;28;20088;-61
2022/10/21 08:11:30;;;;;;;5.97;3.20;;;;;;;8.80;69.14;99123.44;5002131;28;20116;-61
2022/10/21 08:14:14;;;;;;;4.50;3.08;;;;;;;8.69;68.81;99117.97;5015282;28;20080;-59
2022/10/21 08:16:59;;;;;;;9.57;3.50;;;;;;;8.83;68.40;99122.44;5014662;28;20044;-59
2022/10/21 08:19:45;;;;;;;5.95;3.30;;;;;;;8.61;68.57;99124.47;5012874;28;20569;-60
2022/10/21 08:22:29;;;;;;;4.80;3.20;;;;;;;8.77;68.54;99117.53;5015754;28;20386;-59
2022/10/21 08:25:15;;;;;;;8.50;3.80;;;;;;;8.81;68.09;99112.09;5012526;28;20042;-60
2022/10/21 08:28:00;;;;;;;6.75;4.00;;;;;;;8.49;69.26;99114.66;5013659;28;20123;-61
2022/10/21 08:30:45;;;;;;;6.68;3.88;;;;;;;8.59;68.72;99107.19;5012346;28;20108;-61
2022/10/21 08:33:30;;;;;;;5.95;3.28;;;;;;;8.66;69.16;99095.47;5012857;28;20042;-60
2022/10/21 08:36:21;;;;;;;4.68;3.50;;;;;;;8.81;68.34;99104.25;5014073;28;20049;-60
2022/10/21 08:39:06;;;;;;;6.40;3.72;;;;;;;8.74;68.58;99093.28;5012150;28;20044;-60
2022/10/21 08:41:56;;;;;;;9.43;4.43;;;;;;;9.14;67.41;99115.47;5012454;28;20124;-59
2022/10/21 08:44:43;;;;;;;6.50;3.70;;;;;;;8.82;67.76;99123.34;5016243;28;20406;-61
2022/10/21 08:47:49;;;;;;;4.93;3.42;;;;;;;8.95;67.64;99136.56;5016313;28;20476;-59
2022/10/21 08:50:43;;;;;;;9.73;3.75;;;;;;;9.09;67.06;99120.97;5017441;28;20045;-59
2022/10/21 08:53:38;;;;;;;5.90;3.53;;;;;;;9.01;67.29;99107.47;5017512;28;20154;-59
2022/10/21 08:56:23;;;;;;;5.57;3.97;;;;;;;9.06;67.27;99109.81;5012786;28;20072;-60
2022/10/21 08:59:22;;;;;;;6.80;3.67;;;;;;;9.40;65.61;99107.06;5015571;28;20053;-59
2022/10/21 09:02:44;;;;;;;4.90;3.15;;;;;;;9.38;65.22;99094.09;5010254;28;20091;-59
2022/10/21 09:05:37;;;;;;;;;;;;;;;9.55;65.38;99100.06;5013267;28;20544;-59
2022/10/21 09:08:35;;;;;;;9.68;3.60;;;;;;;9.90;63.79;99091.91;5019128;28;19937;-59
2022/10/21 09:11:29;;;;;;;5.63;3.40;;;;;;;9.87;63.94;99089.47;5011950;28;20040;-60
2022/10/21 09:14:35;;;;;;;8.25;4.13;;;;;;;9.68;64.42;99085.34;5013874;28;20041;-59
2022/10/21 09:18:02;;;;;;;5.85;3.67;;;;;;;9.63;64.24;99084.78;5011814;28;20118;-60
2022/10/21 09:20:55;;;;;;;5.03;2.80;;;;;;;9.57;64.49;99074.69;5009599;28;20052;-61
2022/10/21 09:23:56;;;;;;;6.88;3.47;;;;;;;9.52;64.83;99092.41;5012918;28;20049;-61
2022/10/21 09:26:43;;;;;;;4.88;2.88;;;;;;;9.53;64.51;99081.84;5015252;28;20041;-60
2022/10/21 09:29:42;;;;;;;6.65;3.70;;;;;;;9.64;63.71;99081.25;5009974;28;20473;-60
2022/10/21 09:32:33;;;;;;;7.40;3.85;;;;;;;9.76;63.57;99086.66;5013443;28;21601;-60
2022/10/21 09:35:41;;;;;;;4.28;3.08;;;;;;;10.10;63.35;99080.22;5015476;28;20048;-60
2022/10/21 09:38:36;;;;;;;5.40;3.88;;;;;;;9.82;63.47;99088.91;5014774;28;20033;-59
2022/10/21 09:41:23;;;;;;;4.57;3.30;;;;;;;9.88;63.13;99088.53;5017728;28;20033;-60
2022/10/21 09:44:26;;;;;;;7.32;3.65;;;;;;;10.94;62.07;99084.63;5014516;28;20103;-58
2022/10/21 09:47:29;;;;;;;5.55;3.97;;;;;;;10.00;63.29;99078.25;5008255;28;20129;-58
2022/10/21 09:50:16;;;;;;;7.00;3.70;;;;;;;10.13;62.12;99081.81;5016165;28;20042;-58
2022/10/21 09:53:12;;;;;;;6.22;3.60;;;;;;;10.03;62.43;99080.69;5012734;28;20042;-58
2022/10/21 09:56:10;;;;;;;7.72;4.03;;;;;;;9.76;62.69;99090.09;5015481;28;20080;-59
2022/10/21 09:59:10;;;;;;;8.20;4.22;;;;;;;10.04;62.15;99090.22;5010992;28;20042;-60
2022/10/21 10:01:54;;;;;;;7.68;4.10;;;;;;;10.03;61.62;99088.53;5011342;28;20041;-59
2022/10/21 10:04:39;;;;;;;7.60;4.72;;;;;;;10.44;61.75;99072.03;5013015;28;20050;-58
2022/10/21 10:07:42;;;;;;;6.68;4.68;;;;;;;10.11;62.15;99052.25;5019218;28;20088;-53
2022/10/21 10:10:32;;;;;;;7.32;3.95;;;;;;;9.93;62.46;99038.53;5012944;28;20068;-55
2022/10/21 10:13:22;;;;;;;8.57;5.20;;;;;;;10.34;62.48;99022.03;5009292;28;20092;-59
2022/10/21 10:16:13;;;;;;;27.88;13.48;;;;;;;11.96;63.51;98993.94;5012402;28;20052;-54
2022/10/21 10:19:16;;;;;;;7.00;4.03;;;;;;;10.62;60.41;98982.75;5012220;28;20092;-55
2022/10/21 10:22:12;;;;;;;6.13;3.60;;;;;;;10.48;59.99;98988.88;5013486;28;20045;-56
2022/10/21 10:25:07;;;;;;;8.10;3.58;;;;;;;10.59;59.57;98978.53;5014443;28;20050;-56
2022/10/21 10:28:02;;;;;;;18.63;8.60;;;;;;;12.16;64.07;98968.03;5007815;28;20159;-60
2022/10/21 10:30:51;;;;;;;9.07;4.15;;;;;;;11.23;57.77;98970.88;5002732;28;20634;-60
2022/10/21 10:33:35;;;;;;;8.43;3.75;;;;;;;10.93;59.71;98965.00;5008063;28;20519;-59
2022/10/21 10:36:30;;;;;;;7.35;4.40;;;;;;;11.64;57.61;98968.97;5010282;28;20376;-59
2022/10/21 10:39:29;;;;;;;6.00;3.35;;;;;;;10.57;59.45;98974.34;5009613;28;20076;-55
2022/10/21 10:42:20;;;;;;;10.05;3.08;;;;;;;10.33;59.78;98980.22;5010740;28;20052;-57
2022/10/21 10:45:14;;;;;;;10.43;3.58;;;;;;;10.58;59.80;98983.88;5012644;28;20042;-54
2022/10/21 10:48:02;;;;;;;7.65;3.58;;;;;;;10.66;59.36;98996.47;5016581;28;20753;-53
2022/10/21 10:50:49;;;;;;;7.90;3.30;;;;;;;10.69;59.74;98994.50;5021515;28;20038;-55
2022/10/21 10:53:37;;;;;;;4.25;2.97;;;;;;;10.91;58.96;98982.63;5016832;28;20084;-57
2022/10/21 10:56:33;;;;;;;8.25;3.20;;;;;;;10.58;59.70;98970.78;5014642;28;20489;-52
2022/10/21 10:59:33;;;;;;;6.68;3.30;;;;;;;10.40;60.34;98972.78;5012634;28;20069;-55
2022/10/21 11:02:40;;;;;;;4.28;3.50;;;;;;;10.48;60.06;98970.53;5014752;28;20148;-50
2022/10/21 11:05:41;;;;;;;6.40;3.28;;;;;;;10.11;60.68;98960.63;5006486;28;20148;-54
2022/10/21 11:08:25;;;;;;;7.60;3.63;;;;;;;10.03;61.27;98961.13;5014534;28;20075;-52
2022/10/21 11:11:24;;;;;;;11.40;3.78;;;;;;;10.23;60.80;98949.38;5017721;28;20501;-54
2022/10/21 11:14:17;;;;;;;6.90;3.70;;;;;;;10.25;60.45;98951.06;5013892;28;20546;-54
2022/10/21 11:17:17;;;;;;;7.90;3.58;;;;;;;10.10;61.11;98959.78;5012519;28;20056;-56
2022/10/21 11:20:22;;;;;;;5.75;3.53;;;;;;;9.93;61.63;98975.72;5018971;28;20070;-57
2022/10/21 11:23:33;;;;;;;7.95;3.55;;;;;;;9.93;61.66;98971.34;5019113;28;20133;-55
2022/10/21 11:26:50;;;;;;;4.18;3.10;;;;;;;10.25;61.27;98961.53;5013563;28;20100;-57
2022/10/21 11:29:56;;;;;;;6.00;3.20;;;;;;;10.22;60.85;98944.22;4954176;28;20110;-55
2022/10/21 11:32:52;;;;;;;5.22;3.85;;;;;;;10.41;60.49;98940.44;4958081;28;20138;-53
2022/10/21 11:35:51;;;;;;;6.40;3.30;;;;;;;10.13;61.31;98937.81;4957053;28;20047;-56
2022/10/21 11:38:42;;;;;;;3.53;2.63;;;;;;;10.49;60.49;98932.09;4957635;28;20129;-55
2022/10/21 11:41:44;;;;;;;6.88;3.20;;;;;;;10.25;60.98;98936.19;4954553;28;20473;-57
2022/10/21 11:44:47;;;;;;;5.82;3.58;;;;;;;10.27;60.86;98922.97;4952856;28;20058;-52
2022/10/21 11:48:09;;;;;;;7.40;4.18;;;;;;;10.21;61.23;98927.72;4951659;28;20054;-54
2022/10/21 11:51:28;;;;;;;5.28;3.00;;;;;;;10.29;61.01;98934.22;4957864;28;20524;-54
2022/10/21 11:54:27;;;;;;;5.53;3.10;;;;;;;10.26;61.08;98926.56;4919590;29;20078;-50
2022/10/21 11:57:30;;;;;;;6.28;3.03;;;;;;;10.21;61.49;98927.72;4918063;29;20175;-53
2022/10/21 12:00:19;;;;;;;5.82;3.10;;;;;;;10.19;61.13;98920.88;4916789;29;20051;-53
2022/10/21 12:03:04;;;;;;;5.80;3.30;;;;;;;10.39;60.75;98923.97;4918828;29;20055;-51
2022/10/21 12:06:02;;;;;;;7.57;2.70;;;;;;;10.29;61.17;98913.25;4931090;28;20073;-48
2022/10/21 12:08:56;;;;;;;6.07;3.28;;;;;;;11.65;64.75;98898.97;4990471;28;20453;-60
2022/10/21 12:12:08;;;;;;;7.10;3.00;;;;;;;11.66;56.78;98898.88;4979141;28;20462;-53
2022/10/21 12:14:56;;;;;;;8.43;3.70;;;;;;;10.97;58.70;98887.00;4990726;28;20050;-53
2022/10/21 12:17:43;;;;;;;6.95;3.10;;;;;;;10.74;59.43;98875.47;4987757;28;20057;-52
2022/10/21 12:20:27;;;;;;;7.10;3.55;;;;;;;10.93;59.23;98877.66;4990785;28;20037;-55
2022/10/21 12:23:16;;;;;;;5.95;3.00;;;;;;;10.95;59.24;98873.97;4987266;28;20389;-53
2022/10/21 12:26:26;;;;;;;5.35;3.72;;;;;;;11.06;59.19;98864.56;4974146;28;20136;-52
2022/10/21 12:29:36;;;;;;;4.85;3.05;;;;;;;11.08;59.07;98870.53;4996866;28;20045;-58
2022/10/21 12:32:47;;;;;;;9.68;3.20;;;;;;;12.67;58.52;98882.88;5009530;28;20048;-50
2022/10/21 12:36:12;;;;;;;7.53;3.50;;;;;;;11.66;56.16;98869.16;5011212;28;20073;-56
2022/10/21 12:38:58;;;;;;;7.40;2.88;;;;;;;13.47;58.57;98849.66;5010361;28;20045;-56
2022/10/21 12:41:45;;;;;;;6.80;3.08;;;;;;;13.07;57.27;98849.22;5010118;28;20054;-46
2022/10/21 12:44:31;;;;;;;8.20;3.30;;;;;;;12.90;58.53;98843.47;5010454;28;20090;-55
2022/10/21 12:47:35;;;;;;;6.63;3.40;;;;;;;11.34;56.96;98839.03;5012219;28;20844;-57
2022/10/21 12:50:28;;;;;;;7.22;3.45;;;;;;;10.94;58.20;98835.63;5013059;28;20076;-55
2022/10/21 12:53:36;;;;;;;6.60;3.60;;;;;;;11.36;56.91;98823.19;5013543;28;21827;-58
2022/10/21 12:56:41;;;;;;;7.93;3.72;;;;;;;10.90;58.52;98815.78;5014107;28;20062;-58
2022/10/21 12:59:35;;;;;;;7.85;3.67;;;;;;;11.02;58.52;98816.75;5007787;28;20056;-51
2022/10/21 13:02:24;;;;;;;5.30;3.70;;;;;;;11.48;57.28;98824.06;5008613;28;20073;-53
2022/10/21 13:05:08;;;;;;;6.32;3.38;;;;;;;11.46;57.37;98817.16;5008995;28;20871;-53
2022/10/21 13:08:52;;;;;;;7.55;3.33;;;;;;;11.57;57.20;98823.44;5012390;28;20056;-55
2022/10/21 13:11:38;;;;;;;5.30;3.17;;;;;;;11.36;57.74;98812.69;4950238;28;20071;-58
2022/10/21 13:14:37;;;;;;;4.10;2.88;;;;;;;11.05;58.38;98818.31;4950592;28;20050;-55
2022/10/21 13:17:28;;;;;;;6.25;3.28;;;;;;;11.07;58.26;98826.91;4951299;28;20055;-54
2022/10/21 13:20:18;;;;;;;5.78;3.33;;;;;;;10.84;59.10;98813.59;4941341;28;20075;-54
2022/10/21 13:23:31;;;;;;;7.63;3.45;;;;;;;10.70;59.98;98839.00;4954339;28;20501;-54
2022/10/21 13:26:24;;;;;;;6.88;3.90;;;;;;;10.75;60.03;98835.22;4956179;28;20078;-55
2022/10/21 13:29:08;;;;;;;;;;;;;;;10.72;60.05;98831.03;4952990;28;20054;-53